UUOB Airport Information

Runway Information
Runway 11 Length 7546 ft width 138 ft
Elevation 735 ft Threshold 0 ft Heading 117
Runway 29 Length 7546 ft Width 138 ft
Elevation 702 ft Threshold 0 ft Heading 297
Runway 12 Length 7930 ft width 220 ft
Elevation 0 ft Threshold 0 ft Heading 117
Runway 30 Length 7930 ft Width 220 ft
Elevation 0 ft Threshold 0 ft Heading 297
Airport Frequencies
Type APP Name APP Frequency 133 MHZ
Type GND Name TAXIING Frequency 121.7 MHZ
Type TWR Name TWR Frequency 118.2 MHZ
Airport Navaids
Type NDB Name Belgorod Frequency 718 KHZ
Type NDB Name Belgorod Frequency 718 KHZ
Airport Weather Information & NOTAM
ADDS - METARS form results

(0857 UTC 21 April 2019)
Data provider http://aviationweather.gov/metar/data/
 
METAR text: UUOB 210830Z 11005MPS 050V150 CAVOK 14/M07 Q1025 R11/010060 NOSIG
Conditions at: UUOB (BELGOROD , RU) observed 0830 UTC 21 April 2019
Temperature: 14.0°C (57°F)
Dewpoint: -7.0°C (19°F) [RH = 23%]
Pressure (altimeter): 30.27 inches Hg (1025.0 mb)
Winds: from the ESE (110 degrees) at 12 MPH (10 knots; 5.1 m/s)
Visibility: 6 or more miles (10+ km)
Ceiling: ceiling and visibility are OK
Clouds: unknown
Weather: no significant weather observed at this time

METAR text: UUOB 210800Z 13003G08MPS CAVOK 14/M08 Q1025 R11/010060 NOSIG
Conditions at: UUOB (BELGOROD , RU) observed 0800 UTC 21 April 2019
Temperature: 14.0°C (57°F)
Dewpoint: -8.0°C (18°F) [RH = 21%]
Pressure (altimeter): 30.27 inches Hg (1025.0 mb)
Winds: from the SE (130 degrees) at 7 MPH (6 knots; 3.1 m/s)
gusting to 18 MPH (16 knots; 8.2 m/s)
Visibility: 6 or more miles (10+ km)
Ceiling: ceiling and visibility are OK
Clouds: unknown
Weather: no significant weather observed at this time

Forecast for: UUOB (BELGOROD , RU)
Text: TAF UUOB 210800Z 2109/2118 13003MPS CAVOK
Forecast period: 0900 to 1800 UTC 21 April 2019
Forecast type: FROM: standard forecast or significant change
Winds: from the SE (130 degrees) at 7 MPH (6 knots; 3.1 m/s)
Visibility: 6 or more miles 10+ km)
Ceiling: unknown
Clouds: missing
Weather: NSW  (no significant weather)